Kingsville, Ohio
Current Conditions -  °F | °C
As of 2:53 AM on Saturday 25 Oct 2014 (Local Time) from KHZY Reporting Station
Overcast Overcast  
Wind Chill: 50°   Ceiling: 4100
Heat Index: 50°   Visibility: 10mi
Dew Point: 43°   Wind: 0mph
Humidity: 77%   Direction: NA
Pressure: 29.96"   Gusts: NA
Location:  41.89°N, 80.68°W
Report Text: KHZY 250653Z AUTO 00000KT 10SM OVC041 10/06 A2996 RMK AO2 SLP144 T01000061
Loading
Personal Weather Stations






























Interactive Weather Map
Tropical Storm Tracking
New forecast layout! Learn more

10-Day Weather Forecast

Advertisements
Track Severe Weather on mobile